Long Island, KS (67647)

2:06 AM CST on December 11, 2016 (GMT -0600)
RDS Farms | | Change Station

Elev 2159 ft 39.82 °N, 99.57 °W | Updated 18 seconds ago

Partly Cloudy
Partly Cloudy
22.9 °F
Feels Like 23 °F
N
0.0
Wind Variable Wind from West

Today
High -- | Low -- °F
--% Chance of Precip.
Yesterday
High -- | Low -- °F
Precip. -- in
Pressure 29.68 in
Visibility 10.0 miles
Clouds Clear
Windchill 23 °F
Dew Point 21 °F
Humidity 95%
Rainfall 0.00 in
Snow Depth Not available.
7:50 AM 5:13 PM
Waxing Gibbous, 90% visible
METAR KHDE 110755Z AUTO 18004KT 10SM CLR M04/M05 A2968 RMK AO2 T10401055
Pressure 29.68 in
Visibility 10.0 miles
Clouds Clear
Windchill 23 °F
Dew Point 21 °F
Humidity 95%
Rainfall 0.00 in
Snow Depth Not available.
7:50 AM 5:13 PM
Waxing Gibbous, 90% visible
METAR KHDE 110755Z AUTO 18004KT 10SM CLR M04/M05 A2968 RMK AO2 T10401055

10-Day Weather Forecast

Almanac

Astronomy

Dec. 11, 2016 Rise Set
Actual Time
Civil Twilight
Nautical Twilight
Astronomical Twilight
Moon
Length of Visible Light
Length of Day
Tomorrow will be .
, % of the Moon is Illuminated

Today's Extremes

State Highs State Lows

Community

WunderPhotos

Upload Photos

1,956,706 photos uploaded!

WunderBlog® & News

Nearby

Air Quality

  Air Quality AQ Index Pollutant
Not available.

Snow Depth

Station Depth Elevation

Earthquake Activity

City Distance Mag. Time & Date
Minimum magnitude displayed is 2.5.

Coastal Water Temperatures

Place Temperature

Stations

Nearby Weather Stations

Station Location Temp. Windchill Dew Point Humidity Wind Precip. Elev Updated Type
                   

Watches & Warnings

There are currently no watches in effect.